Details for MASKargo at WMKK




Go Back


Latest METAR
Local Time

WMKK 061630Z 12003KT 070V190 8000 -TSRA FEW008 FEW017CB SCT028 26/25 Q1012 NOSIG
07/04/2020, 00:50:50

Description
Results
MASKargo Logo
Number of Pilots based at WMKK
0 Pilots Based here
Number of MASKargo Flights Departed from WMKK
0 Flights Departed
Number of MASKargo Flights Arrived at WMKK
0 Flights Arrived
Number of MASKargo Schedules Departing from WMKK
16 Schedules
Number of MASKargo Schedules Arriving at WMKK
19 Schedules
Number of MASKargo Schedules Departing from WMKK availible today
2 Schedules Today
Number of MASKargo Schedules Arriving at WMKK availible today
3 Schedules Today
Average Landing Rate at WMKK
-181 fpm
MASKargo Average Landing Rate at WMKK
0 fpm
Total Fuel Purchased at WMKK by MASKargo
0.00 kgs / 0.00 lbs

Pilots Based at WMKK


Pilot ID
Pilot Name
Pilot Rank
No. of Flights
No. of Flying Hours
There are no pilots assigned to this hub!   Will you be the first?